sensor_id;sensor_type;location;lat;lon;timestamp;P1;durP1;ratioP1;P2;durP2;ratioP2
55617;SDS011;41492;49.804;9.952;2022-11-23T00:00:57;658.03;;;274.15;;
55617;SDS011;41492;49.804;9.952;2022-11-23T00:03:23;664.83;;;294.02;;
55617;SDS011;41492;49.804;9.952;2022-11-23T00:05:50;666.13;;;301.10;;
55617;SDS011;41492;49.804;9.952;2022-11-23T00:08:17;664.30;;;292.55;;
55617;SDS011;41492;49.804;9.952;2022-11-23T00:10:45;666.92;;;303.48;;
55617;SDS011;41492;49.804;9.952;2022-11-23T00:13:11;657.83;;;274.30;;
55617;SDS011;41492;49.804;9.952;2022-11-23T00:15:39;662.90;;;286.38;;
55617;SDS011;41492;49.804;9.952;2022-11-23T00:18:06;657.25;;;269.92;;
55617;SDS011;41492;49.804;9.952;2022-11-23T00:20:32;664.30;;;295.58;;
55617;SDS011;41492;49.804;9.952;2022-11-23T00:22:59;664.30;;;293.08;;
55617;SDS011;41492;49.804;9.952;2022-11-23T00:25:25;659.05;;;280.42;;
55617;SDS011;41492;49.804;9.952;2022-11-23T00:27:53;658.92;;;278.73;;
55617;SDS011;41492;49.804;9.952;2022-11-23T00:30:20;666.08;;;296.80;;
55617;SDS011;41492;49.804;9.952;2022-11-23T00:32:47;660.72;;;282.27;;
55617;SDS011;41492;49.804;9.952;2022-11-23T00:35:13;657.70;;;266.67;;
55617;SDS011;41492;49.804;9.952;2022-11-23T00:37:40;657.17;;;277.20;;
55617;SDS011;41492;49.804;9.952;2022-11-23T00:40:07;660.30;;;277.90;;
55617;SDS011;41492;49.804;9.952;2022-11-23T00:42:35;656.45;;;266.25;;
55617;SDS011;41492;49.804;9.952;2022-11-23T00:45:03;665.08;;;295.23;;
55617;SDS011;41492;49.804;9.952;2022-11-23T00:47:30;660.03;;;282.65;;
55617;SDS011;41492;49.804;9.952;2022-11-23T00:49:57;662.47;;;286.38;;
55617;SDS011;41492;49.804;9.952;2022-11-23T00:52:24;657.30;;;270.77;;
55617;SDS011;41492;49.804;9.952;2022-11-23T00:54:50;657.22;;;266.25;;
55617;SDS011;41492;49.804;9.952;2022-11-23T00:57:17;664.53;;;295.08;;
55617;SDS011;41492;49.804;9.952;2022-11-23T00:59:43;667.58;;;300.52;;
55617;SDS011;41492;49.804;9.952;2022-11-23T01:02:11;660.38;;;281.73;;
55617;SDS011;41492;49.804;9.952;2022-11-23T01:04:38;660.97;;;285.08;;
55617;SDS011;41492;49.804;9.952;2022-11-23T01:07:05;661.22;;;286.20;;
55617;SDS011;41492;49.804;9.952;2022-11-23T01:09:31;661.15;;;283.73;;
55617;SDS011;41492;49.804;9.952;2022-11-23T01:11:58;664.13;;;296.60;;
55617;SDS011;41492;49.804;9.952;2022-11-23T01:14:24;657.17;;;270.75;;
55617;SDS011;41492;49.804;9.952;2022-11-23T01:16:51;663.13;;;292.73;;
55617;SDS011;41492;49.804;9.952;2022-11-23T01:19:19;658.95;;;275.90;;
55617;SDS011;41492;49.804;9.952;2022-11-23T01:21:46;663.47;;;291.25;;
55617;SDS011;41492;49.804;9.952;2022-11-23T01:24:14;660.22;;;273.10;;
55617;SDS011;41492;49.804;9.952;2022-11-23T01:26:42;656.17;;;267.13;;
55617;SDS011;41492;49.804;9.952;2022-11-23T01:29:09;663.25;;;287.88;;
55617;SDS011;41492;49.804;9.952;2022-11-23T01:31:35;659.53;;;275.55;;
55617;SDS011;41492;49.804;9.952;2022-11-23T01:34:02;661.55;;;285.50;;
55617;SDS011;41492;49.804;9.952;2022-11-23T01:36:31;655.08;;;265.77;;
55617;SDS011;41492;49.804;9.952;2022-11-23T01:38:58;662.20;;;289.05;;
55617;SDS011;41492;49.804;9.952;2022-11-23T01:41:26;661.10;;;275.55;;
55617;SDS011;41492;49.804;9.952;2022-11-23T01:43:54;655.95;;;264.27;;
55617;SDS011;41492;49.804;9.952;2022-11-23T01:46:21;662.70;;;290.40;;
55617;SDS011;41492;49.804;9.952;2022-11-23T01:48:48;653.30;;;258.80;;
55617;SDS011;41492;49.804;9.952;2022-11-23T01:51:17;664.15;;;291.25;;
55617;SDS011;41492;49.804;9.952;2022-11-23T01:53:48;655.55;;;264.20;;
55617;SDS011;41492;49.804;9.952;2022-11-23T01:56:16;657.15;;;275.88;;
55617;SDS011;41492;49.804;9.952;2022-11-23T01:58:45;661.33;;;280.40;;
55617;SDS011;41492;49.804;9.952;2022-11-23T02:01:14;665.55;;;296.45;;
55617;SDS011;41492;49.804;9.952;2022-11-23T02:03:40;661.53;;;282.73;;
55617;SDS011;41492;49.804;9.952;2022-11-23T02:06:09;662.47;;;287.52;;
55617;SDS011;41492;49.804;9.952;2022-11-23T02:08:38;661.95;;;287.63;;
55617;SDS011;41492;49.804;9.952;2022-11-23T02:11:07;659.08;;;277.30;;
55617;SDS011;41492;49.804;9.952;2022-11-23T02:13:33;661.90;;;285.08;;
55617;SDS011;41492;49.804;9.952;2022-11-23T02:16:00;662.95;;;284.58;;
55617;SDS011;41492;49.804;9.952;2022-11-23T02:18:28;660.92;;;280.35;;
55617;SDS011;41492;49.804;9.952;2022-11-23T02:20:56;662.45;;;287.42;;
55617;SDS011;41492;49.804;9.952;2022-11-23T02:23:27;666.78;;;298.17;;
55617;SDS011;41492;49.804;9.952;2022-11-23T02:26:00;662.53;;;286.60;;
55617;SDS011;41492;49.804;9.952;2022-11-23T02:28:30;658.08;;;274.58;;
55617;SDS011;41492;49.804;9.952;2022-11-23T02:30:58;661.78;;;285.80;;
55617;SDS011;41492;49.804;9.952;2022-11-23T02:33:26;654.50;;;260.77;;
55617;SDS011;41492;49.804;9.952;2022-11-23T02:35:53;664.45;;;287.50;;
55617;SDS011;41492;49.804;9.952;2022-11-23T02:38:20;660.72;;;282.35;;
55617;SDS011;41492;49.804;9.952;2022-11-23T02:40:48;656.30;;;265.65;;
55617;SDS011;41492;49.804;9.952;2022-11-23T02:43:16;659.40;;;276.23;;
55617;SDS011;41492;49.804;9.952;2022-11-23T02:45:44;660.03;;;283.55;;
55617;SDS011;41492;49.804;9.952;2022-11-23T02:48:13;658.38;;;270.77;;
55617;SDS011;41492;49.804;9.952;2022-11-23T02:50:39;660.50;;;277.13;;
55617;SDS011;41492;49.804;9.952;2022-11-23T02:53:07;655.40;;;268.98;;
55617;SDS011;41492;49.804;9.952;2022-11-23T02:55:33;660.40;;;281.60;;
55617;SDS011;41492;49.804;9.952;2022-11-23T02:58:00;656.88;;;262.95;;
55617;SDS011;41492;49.804;9.952;2022-11-23T03:00:28;661.33;;;282.02;;
55617;SDS011;41492;49.804;9.952;2022-11-23T03:02:55;658.22;;;274.48;;
55617;SDS011;41492;49.804;9.952;2022-11-23T03:05:23;656.95;;;269.52;;
55617;SDS011;41492;49.804;9.952;2022-11-23T03:07:50;664.45;;;291.55;;
55617;SDS011;41492;49.804;9.952;2022-11-23T03:10:17;661.42;;;280.50;;
55617;SDS011;41492;49.804;9.952;2022-11-23T03:12:44;655.25;;;263.30;;
55617;SDS011;41492;49.804;9.952;2022-11-23T03:15:10;662.72;;;285.88;;
55617;SDS011;41492;49.804;9.952;2022-11-23T03:17:38;659.20;;;272.40;;
55617;SDS011;41492;49.804;9.952;2022-11-23T03:20:05;661.85;;;285.52;;
55617;SDS011;41492;49.804;9.952;2022-11-23T03:22:32;661.97;;;282.50;;
55617;SDS011;41492;49.804;9.952;2022-11-23T03:24:59;662.13;;;288.23;;
55617;SDS011;41492;49.804;9.952;2022-11-23T03:27:25;654.92;;;264.13;;
55617;SDS011;41492;49.804;9.952;2022-11-23T03:29:53;660.08;;;277.98;;
55617;SDS011;41492;49.804;9.952;2022-11-23T03:32:19;656.80;;;267.95;;
55617;SDS011;41492;49.804;9.952;2022-11-23T03:34:47;663.10;;;287.35;;
55617;SDS011;41492;49.804;9.952;2022-11-23T03:37:14;659.53;;;277.52;;
55617;SDS011;41492;49.804;9.952;2022-11-23T03:39:41;663.50;;;285.92;;
55617;SDS011;41492;49.804;9.952;2022-11-23T03:42:07;662.35;;;286.83;;
55617;SDS011;41492;49.804;9.952;2022-11-23T03:44:34;659.92;;;274.40;;
55617;SDS011;41492;49.804;9.952;2022-11-23T03:47:00;663.42;;;293.80;;
55617;SDS011;41492;49.804;9.952;2022-11-23T03:49:27;662.90;;;286.40;;
55617;SDS011;41492;49.804;9.952;2022-11-23T03:51:55;658.97;;;270.00;;
55617;SDS011;41492;49.804;9.952;2022-11-23T03:54:22;655.38;;;264.55;;
55617;SDS011;41492;49.804;9.952;2022-11-23T03:56:48;661.15;;;288.00;;
55617;SDS011;41492;49.804;9.952;2022-11-23T03:59:15;655.53;;;266.15;;
55617;SDS011;41492;49.804;9.952;2022-11-23T04:01:41;660.13;;;279.88;;
55617;SDS011;41492;49.804;9.952;2022-11-23T04:04:08;659.67;;;279.85;;
55617;SDS011;41492;49.804;9.952;2022-11-23T04:06:35;663.83;;;291.48;;
55617;SDS011;41492;49.804;9.952;2022-11-23T04:09:03;661.72;;;281.23;;
55617;SDS011;41492;49.804;9.952;2022-11-23T04:11:29;664.42;;;293.55;;
55617;SDS011;41492;49.804;9.952;2022-11-23T04:13:56;658.97;;;274.20;;
55617;SDS011;41492;49.804;9.952;2022-11-23T04:16:22;659.88;;;281.48;;
55617;SDS011;41492;49.804;9.952;2022-11-23T04:18:49;661.08;;;288.50;;
55617;SDS011;41492;49.804;9.952;2022-11-23T04:21:16;661.42;;;288.55;;
55617;SDS011;41492;49.804;9.952;2022-11-23T04:23:42;660.78;;;281.60;;
55617;SDS011;41492;49.804;9.952;2022-11-23T04:26:10;659.65;;;276.58;;
55617;SDS011;41492;49.804;9.952;2022-11-23T04:28:37;666.55;;;299.65;;
55617;SDS011;41492;49.804;9.952;2022-11-23T04:31:03;658.88;;;275.00;;
55617;SDS011;41492;49.804;9.952;2022-11-23T04:33:30;661.65;;;281.42;;
55617;SDS011;41492;49.804;9.952;2022-11-23T04:35:57;662.33;;;284.98;;
55617;SDS011;41492;49.804;9.952;2022-11-23T04:38:23;659.60;;;275.25;;
55617;SDS011;41492;49.804;9.952;2022-11-23T04:40:50;661.35;;;282.73;;
55617;SDS011;41492;49.804;9.952;2022-11-23T04:43:18;662.67;;;285.95;;
55617;SDS011;41492;49.804;9.952;2022-11-23T04:45:45;659.33;;;278.90;;
55617;SDS011;41492;49.804;9.952;2022-11-23T04:48:11;656.45;;;271.42;;
55617;SDS011;41492;49.804;9.952;2022-11-23T04:50:38;662.78;;;286.00;;
55617;SDS011;41492;49.804;9.952;2022-11-23T04:53:06;656.60;;;267.48;;
55617;SDS011;41492;49.804;9.952;2022-11-23T04:55:33;663.53;;;288.10;;
55617;SDS011;41492;49.804;9.952;2022-11-23T04:57:59;660.53;;;276.40;;
55617;SDS011;41492;49.804;9.952;2022-11-23T05:00:27;660.55;;;276.10;;
55617;SDS011;41492;49.804;9.952;2022-11-23T05:02:54;659.33;;;278.50;;
55617;SDS011;41492;49.804;9.952;2022-11-23T05:05:20;656.45;;;269.73;;
55617;SDS011;41492;49.804;9.952;2022-11-23T05:07:47;655.30;;;264.27;;
55617;SDS011;41492;49.804;9.952;2022-11-23T05:10:14;656.67;;;270.48;;
55617;SDS011;41492;49.804;9.952;2022-11-23T05:12:40;662.72;;;279.55;;
55617;SDS011;41492;49.804;9.952;2022-11-23T05:15:08;654.08;;;258.95;;
55617;SDS011;41492;49.804;9.952;2022-11-23T05:17:37;661.88;;;280.73;;
55617;SDS011;41492;49.804;9.952;2022-11-23T05:20:04;660.33;;;278.85;;
55617;SDS011;41492;49.804;9.952;2022-11-23T05:22:32;662.25;;;289.23;;
55617;SDS011;41492;49.804;9.952;2022-11-23T05:24:59;661.38;;;281.55;;
55617;SDS011;41492;49.804;9.952;2022-11-23T05:27:25;655.75;;;265.15;;
55617;SDS011;41492;49.804;9.952;2022-11-23T05:29:52;656.47;;;270.95;;
55617;SDS011;41492;49.804;9.952;2022-11-23T05:32:18;658.70;;;274.42;;
55617;SDS011;41492;49.804;9.952;2022-11-23T05:34:46;659.25;;;276.58;;
55617;SDS011;41492;49.804;9.952;2022-11-23T05:37:14;658.40;;;273.85;;
55617;SDS011;41492;49.804;9.952;2022-11-23T05:39:40;653.78;;;261.65;;
55617;SDS011;41492;49.804;9.952;2022-11-23T05:42:07;660.15;;;276.85;;
55617;SDS011;41492;49.804;9.952;2022-11-23T05:44:33;654.83;;;262.38;;
55617;SDS011;41492;49.804;9.952;2022-11-23T05:47:00;663.35;;;284.25;;
55617;SDS011;41492;49.804;9.952;2022-11-23T05:49:27;658.80;;;276.23;;
55617;SDS011;41492;49.804;9.952;2022-11-23T05:51:55;661.83;;;279.48;;
55617;SDS011;41492;49.804;9.952;2022-11-23T05:54:22;657.65;;;273.80;;
55617;SDS011;41492;49.804;9.952;2022-11-23T05:56:48;662.70;;;285.27;;
55617;SDS011;41492;49.804;9.952;2022-11-23T05:59:15;660.42;;;280.25;;
55617;SDS011;41492;49.804;9.952;2022-11-23T06:01:41;663.85;;;288.98;;
55617;SDS011;41492;49.804;9.952;2022-11-23T06:04:08;653.17;;;255.10;;
55617;SDS011;41492;49.804;9.952;2022-11-23T06:06:35;653.25;;;258.45;;
55617;SDS011;41492;49.804;9.952;2022-11-23T06:09:03;660.65;;;282.23;;
55617;SDS011;41492;49.804;9.952;2022-11-23T06:11:30;651.90;;;258.88;;
55617;SDS011;41492;49.804;9.952;2022-11-23T06:13:56;654.63;;;262.70;;
55617;SDS011;41492;49.804;9.952;2022-11-23T06:16:23;658.95;;;275.05;;
55617;SDS011;41492;49.804;9.952;2022-11-23T06:18:50;662.45;;;284.27;;
55617;SDS011;41492;49.804;9.952;2022-11-23T06:21:16;656.10;;;266.23;;
55617;SDS011;41492;49.804;9.952;2022-11-23T06:23:43;652.03;;;256.30;;
55617;SDS011;41492;49.804;9.952;2022-11-23T06:26:13;658.15;;;270.08;;
55617;SDS011;41492;49.804;9.952;2022-11-23T06:28:39;655.20;;;266.05;;
55617;SDS011;41492;49.804;9.952;2022-11-23T06:31:06;656.60;;;267.60;;
55617;SDS011;41492;49.804;9.952;2022-11-23T06:33:34;659.22;;;276.33;;
55617;SDS011;41492;49.804;9.952;2022-11-23T06:36:01;655.70;;;265.05;;
55617;SDS011;41492;49.804;9.952;2022-11-23T06:38:28;661.58;;;282.10;;
55617;SDS011;41492;49.804;9.952;2022-11-23T06:40:56;657.95;;;267.80;;
55617;SDS011;41492;49.804;9.952;2022-11-23T06:43:25;656.63;;;267.13;;
55617;SDS011;41492;49.804;9.952;2022-11-23T06:45:51;663.05;;;288.88;;
55617;SDS011;41492;49.804;9.952;2022-11-23T06:48:18;661.00;;;280.70;;
55617;SDS011;41492;49.804;9.952;2022-11-23T06:50:45;664.03;;;293.30;;
55617;SDS011;41492;49.804;9.952;2022-11-23T06:53:12;656.30;;;265.48;;
55617;SDS011;41492;49.804;9.952;2022-11-23T06:55:39;660.47;;;278.02;;
55617;SDS011;41492;49.804;9.952;2022-11-23T06:58:07;658.30;;;274.77;;
55617;SDS011;41492;49.804;9.952;2022-11-23T07:00:35;660.92;;;277.45;;
55617;SDS011;41492;49.804;9.952;2022-11-23T07:03:01;671.13;;;306.17;;
55617;SDS011;41492;49.804;9.952;2022-11-23T07:05:28;672.65;;;315.13;;
55617;SDS011;41492;49.804;9.952;2022-11-23T07:07:55;667.03;;;292.20;;
55617;SDS011;41492;49.804;9.952;2022-11-23T07:10:22;666.25;;;291.15;;
55617;SDS011;41492;49.804;9.952;2022-11-23T07:12:49;674.35;;;320.65;;
55617;SDS011;41492;49.804;9.952;2022-11-23T07:15:16;668.50;;;308.33;;
55617;SDS011;41492;49.804;9.952;2022-11-23T07:17:44;677.33;;;326.75;;
55617;SDS011;41492;49.804;9.952;2022-11-23T07:20:11;684.10;;;341.55;;
55617;SDS011;41492;49.804;9.952;2022-11-23T07:22:38;681.22;;;347.48;;
55617;SDS011;41492;49.804;9.952;2022-11-23T07:25:05;684.35;;;349.98;;
55617;SDS011;41492;49.804;9.952;2022-11-23T07:27:32;684.72;;;344.90;;
55617;SDS011;41492;49.804;9.952;2022-11-23T07:29:59;682.97;;;352.90;;
55617;SDS011;41492;49.804;9.952;2022-11-23T07:32:25;681.47;;;350.92;;
55617;SDS011;41492;49.804;9.952;2022-11-23T07:34:53;675.03;;;321.90;;
55617;SDS011;41492;49.804;9.952;2022-11-23T07:37:20;682.15;;;347.38;;
55617;SDS011;41492;49.804;9.952;2022-11-23T07:39:46;684.85;;;348.80;;
55617;SDS011;41492;49.804;9.952;2022-11-23T07:42:13;683.67;;;344.02;;
55617;SDS011;41492;49.804;9.952;2022-11-23T07:44:40;679.97;;;336.85;;
55617;SDS011;41492;49.804;9.952;2022-11-23T07:47:06;676.40;;;321.88;;
55617;SDS011;41492;49.804;9.952;2022-11-23T07:49:33;682.05;;;342.90;;
55617;SDS011;41492;49.804;9.952;2022-11-23T07:52:01;683.58;;;345.23;;
55617;SDS011;41492;49.804;9.952;2022-11-23T07:54:28;685.85;;;353.02;;
55617;SDS011;41492;49.804;9.952;2022-11-23T07:56:54;680.03;;;340.25;;
55617;SDS011;41492;49.804;9.952;2022-11-23T07:59:21;684.58;;;349.90;;
55617;SDS011;41492;49.804;9.952;2022-11-23T08:01:47;678.22;;;334.63;;
55617;SDS011;41492;49.804;9.952;2022-11-23T08:04:14;684.58;;;360.33;;
55617;SDS011;41492;49.804;9.952;2022-11-23T08:06:40;682.90;;;347.52;;
55617;SDS011;41492;49.804;9.952;2022-11-23T08:09:08;683.17;;;349.90;;
55617;SDS011;41492;49.804;9.952;2022-11-23T08:11:35;690.13;;;373.83;;
55617;SDS011;41492;49.804;9.952;2022-11-23T08:14:02;689.13;;;369.75;;
55617;SDS011;41492;49.804;9.952;2022-11-23T08:16:28;692.78;;;369.58;;
55617;SDS011;41492;49.804;9.952;2022-11-23T08:18:55;685.47;;;354.63;;
55617;SDS011;41492;49.804;9.952;2022-11-23T08:21:22;686.28;;;356.98;;
55617;SDS011;41492;49.804;9.952;2022-11-23T08:23:49;692.78;;;371.73;;
55617;SDS011;41492;49.804;9.952;2022-11-23T08:26:17;687.30;;;365.33;;
55617;SDS011;41492;49.804;9.952;2022-11-23T08:28:43;689.90;;;366.63;;
55617;SDS011;41492;49.804;9.952;2022-11-23T08:31:10;683.10;;;344.30;;
55617;SDS011;41492;49.804;9.952;2022-11-23T08:33:38;680.97;;;339.38;;
55617;SDS011;41492;49.804;9.952;2022-11-23T08:36:05;679.65;;;337.05;;
55617;SDS011;41492;49.804;9.952;2022-11-23T08:38:33;683.55;;;343.83;;
55617;SDS011;41492;49.804;9.952;2022-11-23T08:41:00;679.38;;;341.52;;
55617;SDS011;41492;49.804;9.952;2022-11-23T08:43:30;685.50;;;352.98;;
55617;SDS011;41492;49.804;9.952;2022-11-23T08:45:58;680.60;;;344.60;;
55617;SDS011;41492;49.804;9.952;2022-11-23T08:48:25;686.70;;;363.02;;
55617;SDS011;41492;49.804;9.952;2022-11-23T08:50:52;683.35;;;347.98;;
55617;SDS011;41492;49.804;9.952;2022-11-23T08:53:19;684.70;;;356.17;;
55617;SDS011;41492;49.804;9.952;2022-11-23T08:55:46;680.72;;;344.00;;
55617;SDS011;41492;49.804;9.952;2022-11-23T08:58:13;683.60;;;346.20;;
55617;SDS011;41492;49.804;9.952;2022-11-23T09:00:41;689.72;;;378.55;;
55617;SDS011;41492;49.804;9.952;2022-11-23T09:03:07;688.53;;;360.10;;
55617;SDS011;41492;49.804;9.952;2022-11-23T09:05:36;685.38;;;355.02;;
55617;SDS011;41492;49.804;9.952;2022-11-23T09:08:04;687.75;;;368.10;;
55617;SDS011;41492;49.804;9.952;2022-11-23T09:10:31;690.05;;;371.48;;
55617;SDS011;41492;49.804;9.952;2022-11-23T09:12:58;687.70;;;369.00;;
55617;SDS011;41492;49.804;9.952;2022-11-23T09:15:24;688.50;;;372.35;;
55617;SDS011;41492;49.804;9.952;2022-11-23T09:17:52;684.13;;;353.73;;
55617;SDS011;41492;49.804;9.952;2022-11-23T09:20:19;689.03;;;370.50;;
55617;SDS011;41492;49.804;9.952;2022-11-23T09:22:49;686.45;;;364.98;;
55617;SDS011;41492;49.804;9.952;2022-11-23T09:25:16;686.75;;;359.55;;
55617;SDS011;41492;49.804;9.952;2022-11-23T09:27:42;691.95;;;372.10;;
55617;SDS011;41492;49.804;9.952;2022-11-23T09:30:09;685.40;;;358.92;;
55617;SDS011;41492;49.804;9.952;2022-11-23T09:32:37;686.85;;;357.27;;
55617;SDS011;41492;49.804;9.952;2022-11-23T09:35:05;681.95;;;342.42;;
55617;SDS011;41492;49.804;9.952;2022-11-23T09:37:33;689.72;;;372.73;;
55617;SDS011;41492;49.804;9.952;2022-11-23T09:40:00;687.38;;;362.20;;
55617;SDS011;41492;49.804;9.952;2022-11-23T09:42:30;688.53;;;367.75;;
55617;SDS011;41492;49.804;9.952;2022-11-23T09:45:07;687.60;;;366.50;;
55617;SDS011;41492;49.804;9.952;2022-11-23T09:47:57;686.35;;;357.63;;
55617;SDS011;41492;49.804;9.952;2022-11-23T09:50:44;686.25;;;351.25;;
55617;SDS011;41492;49.804;9.952;2022-11-23T09:53:12;687.85;;;365.48;;
55617;SDS011;41492;49.804;9.952;2022-11-23T09:55:42;680.92;;;342.77;;
55617;SDS011;41492;49.804;9.952;2022-11-23T09:58:11;685.45;;;354.05;;
55617;SDS011;41492;49.804;9.952;2022-11-23T10:00:41;682.25;;;344.30;;
55617;SDS011;41492;49.804;9.952;2022-11-23T10:03:10;686.67;;;361.55;;
55617;SDS011;41492;49.804;9.952;2022-11-23T10:05:39;679.65;;;333.38;;
55617;SDS011;41492;49.804;9.952;2022-11-23T10:08:12;682.28;;;340.52;;
55617;SDS011;41492;49.804;9.952;2022-11-23T10:10:43;680.67;;;341.17;;
55617;SDS011;41492;49.804;9.952;2022-11-23T10:13:24;689.42;;;376.58;;
55617;SDS011;41492;49.804;9.952;2022-11-23T10:16:00;688.33;;;372.73;;
55617;SDS011;41492;49.804;9.952;2022-11-23T10:18:35;685.75;;;367.58;;
55617;SDS011;41492;49.804;9.952;2022-11-23T10:21:09;684.65;;;346.92;;
55617;SDS011;41492;49.804;9.952;2022-11-23T10:23:49;690.88;;;378.25;;
55617;SDS011;41492;49.804;9.952;2022-11-23T10:26:20;683.20;;;354.63;;
55617;SDS011;41492;49.804;9.952;2022-11-23T10:28:49;687.03;;;367.38;;
55617;SDS011;41492;49.804;9.952;2022-11-23T10:31:16;688.17;;;375.05;;
55617;SDS011;41492;49.804;9.952;2022-11-23T10:33:47;682.42;;;353.38;;
55617;SDS011;41492;49.804;9.952;2022-11-23T10:36:19;689.85;;;380.15;;
55617;SDS011;41492;49.804;9.952;2022-11-23T10:38:47;691.08;;;383.15;;
55617;SDS011;41492;49.804;9.952;2022-11-23T10:41:15;689.30;;;374.77;;
55617;SDS011;41492;49.804;9.952;2022-11-23T10:43:43;692.63;;;390.35;;
55617;SDS011;41492;49.804;9.952;2022-11-23T10:46:23;689.60;;;378.25;;
55617;SDS011;41492;49.804;9.952;2022-11-23T10:49:07;684.33;;;363.67;;
55617;SDS011;41492;49.804;9.952;2022-11-23T10:51:35;689.47;;;376.30;;
55617;SDS011;41492;49.804;9.952;2022-11-23T10:54:05;680.33;;;340.13;;
55617;SDS011;41492;49.804;9.952;2022-11-23T10:56:34;692.22;;;383.60;;
55617;SDS011;41492;49.804;9.952;2022-11-23T10:59:00;681.55;;;348.17;;
55617;SDS011;41492;49.804;9.952;2022-11-23T11:01:27;687.80;;;375.52;;
55617;SDS011;41492;49.804;9.952;2022-11-23T11:03:55;681.72;;;351.38;;
55617;SDS011;41492;49.804;9.952;2022-11-23T11:06:28;689.38;;;372.73;;
55617;SDS011;41492;49.804;9.952;2022-11-23T11:08:56;691.90;;;384.13;;
55617;SDS011;41492;49.804;9.952;2022-11-23T11:11:26;691.92;;;382.83;;
55617;SDS011;41492;49.804;9.952;2022-11-23T11:14:01;683.63;;;355.35;;
55617;SDS011;41492;49.804;9.952;2022-11-23T11:16:30;688.70;;;381.35;;
55617;SDS011;41492;49.804;9.952;2022-11-23T11:18:58;681.47;;;348.73;;
55617;SDS011;41492;49.804;9.952;2022-11-23T11:21:27;683.88;;;358.45;;
55617;SDS011;41492;49.804;9.952;2022-11-23T11:23:58;690.50;;;383.02;;
55617;SDS011;41492;49.804;9.952;2022-11-23T11:26:27;683.38;;;362.58;;
55617;SDS011;41492;49.804;9.952;2022-11-23T11:28:55;688.17;;;372.52;;
55617;SDS011;41492;49.804;9.952;2022-11-23T11:31:25;689.55;;;378.08;;
55617;SDS011;41492;49.804;9.952;2022-11-23T11:34:15;684.60;;;361.25;;
55617;SDS011;41492;49.804;9.952;2022-11-23T11:36:46;688.17;;;376.67;;
55617;SDS011;41492;49.804;9.952;2022-11-23T11:39:17;693.42;;;393.58;;
55617;SDS011;41492;49.804;9.952;2022-11-23T11:41:49;689.08;;;377.02;;
55617;SDS011;41492;49.804;9.952;2022-11-23T11:44:18;690.35;;;382.25;;
55617;SDS011;41492;49.804;9.952;2022-11-23T11:46:46;691.78;;;384.92;;
55617;SDS011;41492;49.804;9.952;2022-11-23T11:49:17;685.42;;;357.13;;
55617;SDS011;41492;49.804;9.952;2022-11-23T11:51:46;683.75;;;355.00;;
55617;SDS011;41492;49.804;9.952;2022-11-23T11:54:16;692.15;;;384.70;;
55617;SDS011;41492;49.804;9.952;2022-11-23T11:56:47;686.33;;;362.52;;
55617;SDS011;41492;49.804;9.952;2022-11-23T11:59:18;693.22;;;397.60;;
55617;SDS011;41492;49.804;9.952;2022-11-23T12:01:50;693.20;;;392.98;;
55617;SDS011;41492;49.804;9.952;2022-11-23T12:04:22;693.05;;;391.60;;
55617;SDS011;41492;49.804;9.952;2022-11-23T12:06:52;686.85;;;372.30;;
55617;SDS011;41492;49.804;9.952;2022-11-23T12:09:22;685.97;;;368.08;;
55617;SDS011;41492;49.804;9.952;2022-11-23T12:11:53;692.38;;;396.02;;
55617;SDS011;41492;49.804;9.952;2022-11-23T12:14:20;688.75;;;373.42;;
55617;SDS011;41492;49.804;9.952;2022-11-23T12:16:49;687.92;;;374.90;;
55617;SDS011;41492;49.804;9.952;2022-11-23T12:19:22;683.30;;;355.45;;
55617;SDS011;41492;49.804;9.952;2022-11-23T12:21:55;688.88;;;380.10;;
55617;SDS011;41492;49.804;9.952;2022-11-23T12:24:43;692.95;;;388.25;;
55617;SDS011;41492;49.804;9.952;2022-11-23T12:27:21;684.53;;;359.65;;
55617;SDS011;41492;49.804;9.952;2022-11-23T12:29:57;686.40;;;361.45;;
55617;SDS011;41492;49.804;9.952;2022-11-23T12:32:31;690.05;;;387.15;;
55617;SDS011;41492;49.804;9.952;2022-11-23T12:35:11;693.00;;;383.98;;
55617;SDS011;41492;49.804;9.952;2022-11-23T12:37:48;689.38;;;378.90;;
55617;SDS011;41492;49.804;9.952;2022-11-23T12:40:27;692.53;;;393.35;;
55617;SDS011;41492;49.804;9.952;2022-11-23T12:43:00;691.65;;;389.23;;
55617;SDS011;41492;49.804;9.952;2022-11-23T12:45:38;686.20;;;367.10;;
55617;SDS011;41492;49.804;9.952;2022-11-23T12:48:17;691.45;;;367.27;;
55617;SDS011;41492;49.804;9.952;2022-11-23T12:50:50;688.90;;;377.05;;
55617;SDS011;41492;49.804;9.952;2022-11-23T12:53:25;688.40;;;378.90;;
55617;SDS011;41492;49.804;9.952;2022-11-23T12:56:00;687.67;;;376.35;;
55617;SDS011;41492;49.804;9.952;2022-11-23T12:58:32;691.60;;;378.83;;
55617;SDS011;41492;49.804;9.952;2022-11-23T13:00:59;689.28;;;378.15;;
55617;SDS011;41492;49.804;9.952;2022-11-23T13:03:38;690.90;;;386.15;;
55617;SDS011;41492;49.804;9.952;2022-11-23T13:09:37;692.40;;;390.65;;
55617;SDS011;41492;49.804;9.952;2022-11-23T13:12:11;692.85;;;392.75;;
55617;SDS011;41492;49.804;9.952;2022-11-23T13:14:50;693.58;;;395.25;;
55617;SDS011;41492;49.804;9.952;2022-11-23T13:17:27;689.45;;;377.27;;
55617;SDS011;41492;49.804;9.952;2022-11-23T13:20:02;694.88;;;398.17;;
55617;SDS011;41492;49.804;9.952;2022-11-23T13:22:37;686.45;;;371.35;;
55617;SDS011;41492;49.804;9.952;2022-11-23T13:25:18;691.53;;;388.45;;
55617;SDS011;41492;49.804;9.952;2022-11-23T13:27:54;686.67;;;369.50;;
55617;SDS011;41492;49.804;9.952;2022-11-23T13:30:27;685.40;;;366.83;;
55617;SDS011;41492;49.804;9.952;2022-11-23T13:32:57;691.08;;;390.60;;
55617;SDS011;41492;49.804;9.952;2022-11-23T13:44:22;685.08;;;358.73;;
55617;SDS011;41492;49.804;9.952;2022-11-23T13:46:59;693.65;;;390.33;;
55617;SDS011;41492;49.804;9.952;2022-11-23T13:49:34;693.92;;;403.88;;
55617;SDS011;41492;49.804;9.952;2022-11-23T13:52:17;685.35;;;365.45;;
55617;SDS011;41492;49.804;9.952;2022-11-23T13:55:17;695.38;;;402.10;;
55617;SDS011;41492;49.804;9.952;2022-11-23T13:57:45;691.63;;;396.20;;
55617;SDS011;41492;49.804;9.952;2022-11-23T14:00:50;684.17;;;358.33;;
55617;SDS011;41492;49.804;9.952;2022-11-23T14:06:22;691.80;;;396.33;;
55617;SDS011;41492;49.804;9.952;2022-11-23T14:08:51;693.60;;;394.75;;
55617;SDS011;41492;49.804;9.952;2022-11-23T14:11:20;697.35;;;409.48;;
55617;SDS011;41492;49.804;9.952;2022-11-23T14:13:52;694.72;;;400.58;;
55617;SDS011;41492;49.804;9.952;2022-11-23T14:16:24;687.20;;;375.88;;
55617;SDS011;41492;49.804;9.952;2022-11-23T14:19:03;695.45;;;400.02;;
55617;SDS011;41492;49.804;9.952;2022-11-23T14:21:34;687.95;;;379.45;;